Hillsboro, Indiana
Current Conditions -  °F | °C
As of 4:35 AM on Saturday 25 Oct 2014 (Local Time) from KDNV Reporting Station
Broken Clouds Broken Clouds  
Wind Chill: 55°   Ceiling: 2800
Heat Index: 55°   Visibility: 7mi
Dew Point: 52°   Wind: 7mph
Humidity: 88%   Direction: 210°SSW
Pressure: 29.92"   Gusts: NA
Location:  40.11°N, 87.19°W
Report Text: KDNV 250835Z AUTO 21006KT 7SM BKN028 BKN033 13/11 A2992 RMK AO2 T01300111
Loading
Personal Weather Stations






























Interactive Weather Map
Tropical Storm Tracking
New forecast layout! Learn more

10-Day Weather Forecast

Advertisements
Track Severe Weather on mobile